sensor_id;sensor_type;location;lat;lon;timestamp;pressure;altitude;pressure_sealevel;temperature;humidity
64739;BME280;51175;51.186;0.276;2023-03-23T00:00:24;99428.88;;;16.00;68.20
64739;BME280;51175;51.186;0.276;2023-03-23T00:00:54;99438.72;;;16.00;68.18
64739;BME280;51175;51.186;0.276;2023-03-23T00:01:24;99420.41;;;15.98;68.15
64739;BME280;51175;51.186;0.276;2023-03-23T00:01:56;99431.81;;;15.99;68.11
64739;BME280;51175;51.186;0.276;2023-03-23T00:02:28;99421.19;;;15.99;68.18
64739;BME280;51175;51.186;0.276;2023-03-23T00:02:59;99427.28;;;15.99;68.13
64739;BME280;51175;51.186;0.276;2023-03-23T00:03:29;99425.75;;;15.98;68.18
64739;BME280;51175;51.186;0.276;2023-03-23T00:04:02;99429.16;;;15.99;68.18
64739;BME280;51175;51.186;0.276;2023-03-23T00:04:33;99430.75;;;16.00;67.90
64739;BME280;51175;51.186;0.276;2023-03-23T00:05:05;99425.41;;;16.00;67.94
64739;BME280;51175;51.186;0.276;2023-03-23T00:05:38;99425.41;;;16.00;68.20
64739;BME280;51175;51.186;0.276;2023-03-23T00:06:11;99430.75;;;16.00;68.10
64739;BME280;51175;51.186;0.276;2023-03-23T00:06:47;99412.91;;;16.00;67.88
64739;BME280;51175;51.186;0.276;2023-03-23T00:07:17;99427.28;;;15.99;68.01
64739;BME280;51175;51.186;0.276;2023-03-23T00:07:51;99424.63;;;15.99;68.20
64739;BME280;51175;51.186;0.276;2023-03-23T00:08:22;99431.81;;;15.99;68.25
64739;BME280;51175;51.186;0.276;2023-03-23T00:08:53;99433.72;;;15.98;67.99
64739;BME280;51175;51.186;0.276;2023-03-23T00:09:29;99425.75;;;15.98;67.99
64739;BME280;51175;51.186;0.276;2023-03-23T00:10:00;99432.94;;;15.98;68.02
64739;BME280;51175;51.186;0.276;2023-03-23T00:10:34;99427.63;;;15.98;67.88
64739;BME280;51175;51.186;0.276;2023-03-23T00:11:05;99428.41;;;15.98;68.17
64739;BME280;51175;51.186;0.276;2023-03-23T00:11:35;99428.69;;;15.97;68.25
64739;BME280;51175;51.186;0.276;2023-03-23T00:12:06;99429.47;;;15.97;68.04
64739;BME280;51175;51.186;0.276;2023-03-23T00:12:37;99418.84;;;15.97;67.91
64739;BME280;51175;51.186;0.276;2023-03-23T00:13:07;99418.84;;;15.97;68.29
64739;BME280;51175;51.186;0.276;2023-03-23T00:13:37;99428.69;;;15.97;68.23
64739;BME280;51175;51.186;0.276;2023-03-23T00:14:09;99423.38;;;15.97;67.86
64739;BME280;51175;51.186;0.276;2023-03-23T00:14:43;99424.44;;;15.96;67.87
64739;BME280;51175;51.186;0.276;2023-03-23T00:15:13;99426.03;;;15.97;67.90
64739;BME280;51175;51.186;0.276;2023-03-23T00:15:47;99423.38;;;15.97;67.99
64739;BME280;51175;51.186;0.276;2023-03-23T00:16:21;99417.25;;;15.96;67.90
64739;BME280;51175;51.186;0.276;2023-03-23T00:16:58;99429.47;;;15.97;67.97
64739;BME280;51175;51.186;0.276;2023-03-23T00:17:30;99423.69;;;15.95;68.24
64739;BME280;51175;51.186;0.276;2023-03-23T00:18:03;99431.69;;;15.95;67.81
64739;BME280;51175;51.186;0.276;2023-03-23T00:18:35;99424.44;;;15.96;67.98
64739;BME280;51175;51.186;0.276;2023-03-23T00:19:09;99429.00;;;15.95;68.10
64739;BME280;51175;51.186;0.276;2023-03-23T00:19:43;99432.75;;;15.94;68.02
64739;BME280;51175;51.186;0.276;2023-03-23T00:20:15;99432.75;;;15.94;67.97
64739;BME280;51175;51.186;0.276;2023-03-23T00:20:54;99446.06;;;15.94;67.99
64739;BME280;51175;51.186;0.276;2023-03-23T00:21:27;99447.66;;;15.95;68.08
64739;BME280;51175;51.186;0.276;2023-03-23T00:22:04;99440.75;;;15.94;68.16
64739;BME280;51175;51.186;0.276;2023-03-23T00:22:37;99443.41;;;15.94;68.18
64739;BME280;51175;51.186;0.276;2023-03-23T00:23:07;99450.31;;;15.95;67.97
64739;BME280;51175;51.186;0.276;2023-03-23T00:23:38;99437.31;;;15.94;68.09
64739;BME280;51175;51.186;0.276;2023-03-23T00:24:12;99456.41;;;15.96;68.09
64739;BME280;51175;51.186;0.276;2023-03-23T00:24:43;99444.19;;;15.95;67.96
64739;BME280;51175;51.186;0.276;2023-03-23T00:25:14;99459.38;;;15.94;67.94
64739;BME280;51175;51.186;0.276;2023-03-23T00:25:47;99449.53;;;15.95;67.93
64739;BME280;51175;51.186;0.276;2023-03-23T00:26:18;99455.97;;;15.94;68.07
64739;BME280;51175;51.186;0.276;2023-03-23T00:26:48;99446.41;;;15.93;68.14
64739;BME280;51175;51.186;0.276;2023-03-23T00:27:22;99462.06;;;15.94;68.33
64739;BME280;51175;51.186;0.276;2023-03-23T00:27:53;99458.63;;;15.94;68.17
64739;BME280;51175;51.186;0.276;2023-03-23T00:28:25;99468.50;;;15.93;68.18
64739;BME280;51175;51.186;0.276;2023-03-23T00:28:56;99449.06;;;15.93;67.97
64739;BME280;51175;51.186;0.276;2023-03-23T00:29:26;99454.84;;;15.95;68.13
64739;BME280;51175;51.186;0.276;2023-03-23T00:29:57;99462.38;;;15.93;67.89
64739;BME280;51175;51.186;0.276;2023-03-23T00:30:27;99457.06;;;15.93;68.11
64739;BME280;51175;51.186;0.276;2023-03-23T00:31:03;99458.63;;;15.94;68.23
64739;BME280;51175;51.186;0.276;2023-03-23T00:31:33;99447.19;;;15.93;68.31
64739;BME280;51175;51.186;0.276;2023-03-23T00:32:05;99441.88;;;15.93;68.27
64739;BME280;51175;51.186;0.276;2023-03-23T00:32:35;99455.19;;;15.93;67.99
64739;BME280;51175;51.186;0.276;2023-03-23T00:33:06;99453.31;;;15.94;68.32
64739;BME280;51175;51.186;0.276;2023-03-23T00:33:37;99457.84;;;15.93;68.15
64739;BME280;51175;51.186;0.276;2023-03-23T00:34:09;99442.66;;;15.94;67.94
64739;BME280;51175;51.186;0.276;2023-03-23T00:34:42;99451.41;;;15.94;68.17
64739;BME280;51175;51.186;0.276;2023-03-23T00:35:14;99456.72;;;15.94;67.91
64739;BME280;51175;51.186;0.276;2023-03-23T00:35:45;99441.53;;;15.95;68.34
64739;BME280;51175;51.186;0.276;2023-03-23T00:36:15;99456.72;;;15.94;68.23
64739;BME280;51175;51.186;0.276;2023-03-23T00:36:49;99451.41;;;15.94;67.87
64739;BME280;51175;51.186;0.276;2023-03-23T00:37:20;99457.50;;;15.95;68.31
64739;BME280;51175;51.186;0.276;2023-03-23T00:37:51;99458.63;;;15.94;67.93
64739;BME280;51175;51.186;0.276;2023-03-23T00:38:23;99451.72;;;15.93;67.88
64739;BME280;51175;51.186;0.276;2023-03-23T00:38:54;99439.19;;;15.93;67.95
64739;BME280;51175;51.186;0.276;2023-03-23T00:39:28;99446.41;;;15.93;68.14
64739;BME280;51175;51.186;0.276;2023-03-23T00:39:58;99459.72;;;15.93;68.08
64739;BME280;51175;51.186;0.276;2023-03-23T00:40:30;99449.06;;;15.93;67.84
64739;BME280;51175;51.186;0.276;2023-03-23T00:41:01;99444.06;;;15.91;68.13
64739;BME280;51175;51.186;0.276;2023-03-23T00:41:33;99446.41;;;15.93;68.18
64739;BME280;51175;51.186;0.276;2023-03-23T00:42:06;99451.28;;;15.91;67.98
64739;BME280;51175;51.186;0.276;2023-03-23T00:42:36;99446.41;;;15.93;68.18
64739;BME280;51175;51.186;0.276;2023-03-23T00:43:08;99441.41;;;15.91;68.25
64739;BME280;51175;51.186;0.276;2023-03-23T00:43:38;99453.94;;;15.91;68.13
64739;BME280;51175;51.186;0.276;2023-03-23T00:44:09;99441.41;;;15.91;67.99
64739;BME280;51175;51.186;0.276;2023-03-23T00:44:39;99453.94;;;15.91;68.01
64739;BME280;51175;51.186;0.276;2023-03-23T00:45:10;99456.28;;;15.92;68.15
64739;BME280;51175;51.186;0.276;2023-03-23T00:45:42;99451.28;;;15.91;68.10
64739;BME280;51175;51.186;0.276;2023-03-23T00:46:14;99445.16;;;15.90;68.01
64739;BME280;51175;51.186;0.276;2023-03-23T00:46:46;99464.59;;;15.91;67.98
64739;BME280;51175;51.186;0.276;2023-03-23T00:47:18;99450.97;;;15.92;68.19
64739;BME280;51175;51.186;0.276;2023-03-23T00:47:49;99449.38;;;15.91;68.08
64739;BME280;51175;51.186;0.276;2023-03-23T00:48:22;99448.63;;;15.91;68.23
64739;BME280;51175;51.186;0.276;2023-03-23T00:48:54;99461.16;;;15.90;68.24
64739;BME280;51175;51.186;0.276;2023-03-23T00:49:25;99450.50;;;15.90;68.04
64739;BME280;51175;51.186;0.276;2023-03-23T00:49:56;99467.25;;;15.91;67.80
64739;BME280;51175;51.186;0.276;2023-03-23T00:50:26;99464.59;;;15.91;68.06
64739;BME280;51175;51.186;0.276;2023-03-23T00:50:57;99456.59;;;15.91;68.29
64739;BME280;51175;51.186;0.276;2023-03-23T00:51:28;99455.81;;;15.90;68.03
64739;BME280;51175;51.186;0.276;2023-03-23T00:51:58;99464.59;;;15.91;68.01
64739;BME280;51175;51.186;0.276;2023-03-23T00:52:28;99459.28;;;15.91;68.21
64739;BME280;51175;51.186;0.276;2023-03-23T00:52:59;99455.81;;;15.90;68.01
64739;BME280;51175;51.186;0.276;2023-03-23T00:53:29;99447.03;;;15.89;67.93
64739;BME280;51175;51.186;0.276;2023-03-23T00:54:00;99467.56;;;15.89;67.97
64739;BME280;51175;51.186;0.276;2023-03-23T00:54:30;99450.81;;;15.88;68.19
64739;BME280;51175;51.186;0.276;2023-03-23T00:55:00;99442.50;;;15.90;68.03
64739;BME280;51175;51.186;0.276;2023-03-23T00:55:31;99468.34;;;15.89;68.09
64739;BME280;51175;51.186;0.276;2023-03-23T00:56:01;99459.59;;;15.89;67.85
64739;BME280;51175;51.186;0.276;2023-03-23T00:56:32;99457.69;;;15.89;67.90
64739;BME280;51175;51.186;0.276;2023-03-23T00:57:02;99456.94;;;15.89;68.01
64739;BME280;51175;51.186;0.276;2023-03-23T00:57:33;99458.00;;;15.88;68.12
64739;BME280;51175;51.186;0.276;2023-03-23T00:58:03;99462.25;;;15.89;68.02
64739;BME280;51175;51.186;0.276;2023-03-23T00:58:33;99459.59;;;15.89;67.74
64739;BME280;51175;51.186;0.276;2023-03-23T00:59:05;99449.25;;;15.87;68.07
64739;BME280;51175;51.186;0.276;2023-03-23T00:59:35;99466.78;;;15.88;67.81
64739;BME280;51175;51.186;0.276;2023-03-23T01:00:06;99466.78;;;15.88;68.25
64739;BME280;51175;51.186;0.276;2023-03-23T01:00:41;99460.66;;;15.88;68.13
64739;BME280;51175;51.186;0.276;2023-03-23T01:01:12;99472.13;;;15.88;67.74
64739;BME280;51175;51.186;0.276;2023-03-23T01:01:42;99462.56;;;15.87;67.86
64739;BME280;51175;51.186;0.276;2023-03-23T01:02:13;99466.00;;;15.88;68.08
64739;BME280;51175;51.186;0.276;2023-03-23T01:02:43;99469.44;;;15.88;68.10
64739;BME280;51175;51.186;0.276;2023-03-23T01:03:14;99472.13;;;15.88;68.02
64739;BME280;51175;51.186;0.276;2023-03-23T01:03:48;99462.56;;;15.87;67.84
64739;BME280;51175;51.186;0.276;2023-03-23T01:04:20;99473.97;;;15.88;67.84
64739;BME280;51175;51.186;0.276;2023-03-23T01:04:50;99472.44;;;15.87;68.11
64739;BME280;51175;51.186;0.276;2023-03-23T01:05:22;99470.56;;;15.87;67.95
64739;BME280;51175;51.186;0.276;2023-03-23T01:05:52;99483.88;;;15.87;67.95
64739;BME280;51175;51.186;0.276;2023-03-23T01:06:23;99472.44;;;15.87;68.10
64739;BME280;51175;51.186;0.276;2023-03-23T01:06:53;99483.09;;;15.87;68.18
64739;BME280;51175;51.186;0.276;2023-03-23T01:07:24;99478.88;;;15.86;68.07
64739;BME280;51175;51.186;0.276;2023-03-23T01:07:54;99481.53;;;15.86;67.93
64739;BME280;51175;51.186;0.276;2023-03-23T01:08:25;99474.31;;;15.86;67.92
64739;BME280;51175;51.186;0.276;2023-03-23T01:08:55;99485.75;;;15.87;68.02
64739;BME280;51175;51.186;0.276;2023-03-23T01:09:26;99485.75;;;15.87;68.18
64739;BME280;51175;51.186;0.276;2023-03-23T01:09:57;99486.84;;;15.86;67.97
64739;BME280;51175;51.186;0.276;2023-03-23T01:10:28;99491.38;;;15.85;67.78
64739;BME280;51175;51.186;0.276;2023-03-23T01:11:03;99474.31;;;15.86;67.99
64739;BME280;51175;51.186;0.276;2023-03-23T01:11:34;99486.06;;;15.85;67.97
64739;BME280;51175;51.186;0.276;2023-03-23T01:12:05;99484.19;;;15.86;67.83
64739;BME280;51175;51.186;0.276;2023-03-23T01:12:36;99475.41;;;15.85;68.05
64739;BME280;51175;51.186;0.276;2023-03-23T01:13:07;99480.75;;;15.85;67.74
64739;BME280;51175;51.186;0.276;2023-03-23T01:13:37;99482.28;;;15.86;67.83
64739;BME280;51175;51.186;0.276;2023-03-23T01:14:08;99481.53;;;15.86;67.77
64739;BME280;51175;51.186;0.276;2023-03-23T01:14:38;99483.09;;;15.87;68.08
64739;BME280;51175;51.186;0.276;2023-03-23T01:15:13;99486.84;;;15.86;67.87
64739;BME280;51175;51.186;0.276;2023-03-23T01:15:45;99498.28;;;15.86;68.04
64739;BME280;51175;51.186;0.276;2023-03-23T01:16:16;99484.97;;;15.86;67.78
64739;BME280;51175;51.186;0.276;2023-03-23T01:16:46;99481.53;;;15.86;67.92
64739;BME280;51175;51.186;0.276;2023-03-23T01:17:17;99484.19;;;15.86;67.86
64739;BME280;51175;51.186;0.276;2023-03-23T01:17:48;99489.53;;;15.86;67.89
64739;BME280;51175;51.186;0.276;2023-03-23T01:18:19;99492.94;;;15.86;68.07
64739;BME280;51175;51.186;0.276;2023-03-23T01:18:49;99486.84;;;15.86;67.80
64739;BME280;51175;51.186;0.276;2023-03-23T01:19:20;99487.63;;;15.86;68.14
64739;BME280;51175;51.186;0.276;2023-03-23T01:19:50;99484.97;;;15.86;67.87
64739;BME280;51175;51.186;0.276;2023-03-23T01:20:20;99495.59;;;15.86;67.68
64739;BME280;51175;51.186;0.276;2023-03-23T01:20:51;99498.28;;;15.86;67.85
64739;BME280;51175;51.186;0.276;2023-03-23T01:21:21;99481.53;;;15.86;67.95
64739;BME280;51175;51.186;0.276;2023-03-23T01:21:52;99489.53;;;15.86;68.00
64739;BME280;51175;51.186;0.276;2023-03-23T01:22:22;99484.97;;;15.86;67.87
64739;BME280;51175;51.186;0.276;2023-03-23T01:22:53;99487.63;;;15.86;68.00
64739;BME280;51175;51.186;0.276;2023-03-23T01:23:30;99495.59;;;15.86;68.02
64739;BME280;51175;51.186;0.276;2023-03-23T01:24:01;99494.84;;;15.86;67.95
64739;BME280;51175;51.186;0.276;2023-03-23T01:24:32;99495.59;;;15.86;67.93
64739;BME280;51175;51.186;0.276;2023-03-23T01:25:02;99495.59;;;15.86;67.97
64739;BME280;51175;51.186;0.276;2023-03-23T01:25:35;99492.94;;;15.86;67.86
64739;BME280;51175;51.186;0.276;2023-03-23T01:26:11;99494.84;;;15.86;68.00
64739;BME280;51175;51.186;0.276;2023-03-23T01:26:42;99500.16;;;15.86;68.16
64739;BME280;51175;51.186;0.276;2023-03-23T01:27:12;99497.50;;;15.86;67.94
64739;BME280;51175;51.186;0.276;2023-03-23T01:27:42;99499.38;;;15.85;68.03
64739;BME280;51175;51.186;0.276;2023-03-23T01:28:13;99490.59;;;15.85;68.11
64739;BME280;51175;51.186;0.276;2023-03-23T01:28:44;99499.38;;;15.85;67.98
64739;BME280;51175;51.186;0.276;2023-03-23T01:29:14;99489.84;;;15.84;67.92
64739;BME280;51175;51.186;0.276;2023-03-23T01:29:45;99499.69;;;15.84;67.76
64739;BME280;51175;51.186;0.276;2023-03-23T01:30:15;99501.25;;;15.85;67.75
64739;BME280;51175;51.186;0.276;2023-03-23T01:30:46;99491.72;;;15.84;67.92
64739;BME280;51175;51.186;0.276;2023-03-23T01:31:21;99502.34;;;15.84;67.95
64739;BME280;51175;51.186;0.276;2023-03-23T01:31:52;99511.13;;;15.84;67.92
64739;BME280;51175;51.186;0.276;2023-03-23T01:32:23;99491.72;;;15.84;67.76
64739;BME280;51175;51.186;0.276;2023-03-23T01:32:54;99498.91;;;15.83;67.89
64739;BME280;51175;51.186;0.276;2023-03-23T01:33:24;99498.91;;;15.83;68.08
64739;BME280;51175;51.186;0.276;2023-03-23T01:33:55;99501.56;;;15.83;67.90
64739;BME280;51175;51.186;0.276;2023-03-23T01:34:26;99514.13;;;15.83;68.11
64739;BME280;51175;51.186;0.276;2023-03-23T01:34:57;99510.66;;;15.82;68.01
64739;BME280;51175;51.186;0.276;2023-03-23T01:35:27;99505.34;;;15.82;68.12
64739;BME280;51175;51.186;0.276;2023-03-23T01:36:02;99513.31;;;15.82;68.01
64739;BME280;51175;51.186;0.276;2023-03-23T01:36:33;99513.31;;;15.82;68.18
64739;BME280;51175;51.186;0.276;2023-03-23T01:37:03;99500.81;;;15.83;68.09
64739;BME280;51175;51.186;0.276;2023-03-23T01:37:34;99499.22;;;15.82;67.89
64739;BME280;51175;51.186;0.276;2023-03-23T01:38:06;99494.22;;;15.80;67.77
64739;BME280;51175;51.186;0.276;2023-03-23T01:38:36;99495.00;;;15.81;67.87
64739;BME280;51175;51.186;0.276;2023-03-23T01:39:07;99489.38;;;15.82;67.84
64739;BME280;51175;51.186;0.276;2023-03-23T01:39:37;99487.03;;;15.81;68.05
64739;BME280;51175;51.186;0.276;2023-03-23T01:40:09;99488.91;;;15.80;67.97
64739;BME280;51175;51.186;0.276;2023-03-23T01:40:40;99488.91;;;15.80;68.05
64739;BME280;51175;51.186;0.276;2023-03-23T01:41:11;99507.53;;;15.80;67.88
64739;BME280;51175;51.186;0.276;2023-03-23T01:41:41;99496.13;;;15.80;68.17
64739;BME280;51175;51.186;0.276;2023-03-23T01:42:11;99498.78;;;15.80;67.81
64739;BME280;51175;51.186;0.276;2023-03-23T01:42:42;99495.34;;;15.79;67.76
64739;BME280;51175;51.186;0.276;2023-03-23T01:43:14;99503.31;;;15.79;67.89
64739;BME280;51175;51.186;0.276;2023-03-23T01:45:50;99493.47;;;15.80;67.85
64739;BME280;51175;51.186;0.276;2023-03-23T01:46:20;99490.00;;;15.79;67.93
64739;BME280;51175;51.186;0.276;2023-03-23T01:46:52;99494.53;;;15.79;67.98
64739;BME280;51175;51.186;0.276;2023-03-23T01:47:24;99492.66;;;15.79;68.03
64739;BME280;51175;51.186;0.276;2023-03-23T01:48:01;99489.22;;;15.79;67.88
64739;BME280;51175;51.186;0.276;2023-03-23T01:48:35;99491.13;;;15.78;68.00
64739;BME280;51175;51.186;0.276;2023-03-23T01:49:14;99488.44;;;15.78;68.10
64739;BME280;51175;51.186;0.276;2023-03-23T01:49:48;99485.78;;;15.78;67.90
64739;BME280;51175;51.186;0.276;2023-03-23T01:50:20;99488.44;;;15.78;68.20
64739;BME280;51175;51.186;0.276;2023-03-23T01:51:06;99477.81;;;15.78;68.01
64739;BME280;51175;51.186;0.276;2023-03-23T01:51:52;99487.66;;;15.77;67.80
64739;BME280;51175;51.186;0.276;2023-03-23T01:52:26;99494.53;;;15.79;68.19
64739;BME280;51175;51.186;0.276;2023-03-23T01:52:59;99492.19;;;15.77;67.89
64739;BME280;51175;51.186;0.276;2023-03-23T01:53:37;99493.00;;;15.77;67.98
64739;BME280;51175;51.186;0.276;2023-03-23T01:54:11;99498.63;;;15.76;68.11
64739;BME280;51175;51.186;0.276;2023-03-23T01:54:49;99497.53;;;15.77;67.88
64739;BME280;51175;51.186;0.276;2023-03-23T01:55:21;99494.41;;;15.75;67.76
64739;BME280;51175;51.186;0.276;2023-03-23T01:55:54;99487.50;;;15.74;67.96
64739;BME280;51175;51.186;0.276;2023-03-23T01:56:38;99503.16;;;15.75;68.28
64739;BME280;51175;51.186;0.276;2023-03-23T01:57:13;99487.50;;;15.74;68.15
64739;BME280;51175;51.186;0.276;2023-03-23T01:57:45;99489.41;;;15.73;68.16
64739;BME280;51175;51.186;0.276;2023-03-23T01:58:21;99490.16;;;15.74;68.33
64739;BME280;51175;51.186;0.276;2023-03-23T01:58:56;99496.59;;;15.73;68.12
64739;BME280;51175;51.186;0.276;2023-03-23T01:59:27;99501.94;;;15.73;68.18
64739;BME280;51175;51.186;0.276;2023-03-23T02:00:02;99500.06;;;15.73;67.89
64739;BME280;51175;51.186;0.276;2023-03-23T02:00:40;99486.75;;;15.73;68.25
64739;BME280;51175;51.186;0.276;2023-03-23T02:01:14;99485.63;;;15.74;67.93
64739;BME280;51175;51.186;0.276;2023-03-23T02:01:46;99493.94;;;15.73;68.15
64739;BME280;51175;51.186;0.276;2023-03-23T02:02:17;99499.25;;;15.73;68.02
64739;BME280;51175;51.186;0.276;2023-03-23T02:02:49;99495.50;;;15.74;68.12
64739;BME280;51175;51.186;0.276;2023-03-23T02:03:21;99486.75;;;15.73;68.01
64739;BME280;51175;51.186;0.276;2023-03-23T02:03:55;99486.75;;;15.73;68.10
64739;BME280;51175;51.186;0.276;2023-03-23T02:04:29;99495.81;;;15.72;68.17
64739;BME280;51175;51.186;0.276;2023-03-23T02:05:06;99496.59;;;15.73;68.01
64739;BME280;51175;51.186;0.276;2023-03-23T02:05:40;99480.63;;;15.73;68.32
64739;BME280;51175;51.186;0.276;2023-03-23T02:06:11;99485.16;;;15.72;68.07
64739;BME280;51175;51.186;0.276;2023-03-23T02:06:43;99484.41;;;15.72;68.24
64739;BME280;51175;51.186;0.276;2023-03-23T02:07:15;99491.28;;;15.73;67.85
64739;BME280;51175;51.186;0.276;2023-03-23T02:07:47;99489.72;;;15.72;67.87
64739;BME280;51175;51.186;0.276;2023-03-23T02:08:19;99480.97;;;15.71;68.09
64739;BME280;51175;51.186;0.276;2023-03-23T02:08:50;99495.06;;;15.72;68.16
64739;BME280;51175;51.186;0.276;2023-03-23T02:09:22;99493.16;;;15.72;68.15
64739;BME280;51175;51.186;0.276;2023-03-23T02:09:52;99474.53;;;15.72;68.04
64739;BME280;51175;51.186;0.276;2023-03-23T02:10:23;99477.19;;;15.72;67.86
64739;BME280;51175;51.186;0.276;2023-03-23T02:10:54;99479.84;;;15.72;67.94
64739;BME280;51175;51.186;0.276;2023-03-23T02:11:24;99476.09;;;15.73;68.00
64739;BME280;51175;51.186;0.276;2023-03-23T02:11:55;99470.00;;;15.73;68.07
64739;BME280;51175;51.186;0.276;2023-03-23T02:12:26;99485.97;;;15.73;67.89
64739;BME280;51175;51.186;0.276;2023-03-23T02:12:58;99481.44;;;15.73;68.01
64739;BME280;51175;51.186;0.276;2023-03-23T02:13:29;99483.28;;;15.73;67.83
64739;BME280;51175;51.186;0.276;2023-03-23T02:14:00;99483.28;;;15.73;67.95
64739;BME280;51175;51.186;0.276;2023-03-23T02:14:31;99484.41;;;15.72;68.10
64739;BME280;51175;51.186;0.276;2023-03-23T02:15:02;99481.75;;;15.72;67.75
64739;BME280;51175;51.186;0.276;2023-03-23T02:16:42;99492.41;;;15.72;67.94
64739;BME280;51175;51.186;0.276;2023-03-23T02:17:36;99482.81;;;15.71;67.87
64739;BME280;51175;51.186;0.276;2023-03-23T02:18:25;99487.38;;;15.70;67.75
64739;BME280;51175;51.186;0.276;2023-03-23T02:20:17;99490.38;;;15.69;67.86
64739;BME280;51175;51.186;0.276;2023-03-23T02:24:29;99484.09;;;15.64;68.28
64739;BME280;51175;51.186;0.276;2023-03-23T02:26:58;99494.75;;;15.64;68.06
64739;BME280;51175;51.186;0.276;2023-03-23T02:27:14;99485.53;;;15.62;68.10
64739;BME280;51175;51.186;0.276;2023-03-23T02:33:39;99489.91;;;15.58;68.25
64739;BME280;51175;51.186;0.276;2023-03-23T02:34:24;99492.56;;;15.58;68.38
64739;BME280;51175;51.186;0.276;2023-03-23T02:35:03;99502.44;;;15.57;68.45
64739;BME280;51175;51.186;0.276;2023-03-23T02:35:41;99499.78;;;15.57;68.28
64739;BME280;51175;51.186;0.276;2023-03-23T02:37:32;99494.78;;;15.56;67.99
64739;BME280;51175;51.186;0.276;2023-03-23T02:38:19;99493.69;;;15.57;68.37
64739;BME280;51175;51.186;0.276;2023-03-23T02:39:03;99494.78;;;15.56;68.36
64739;BME280;51175;51.186;0.276;2023-03-23T02:39:51;99491.34;;;15.55;68.41
64739;BME280;51175;51.186;0.276;2023-03-23T02:40:40;99494.00;;;15.55;68.35
64739;BME280;51175;51.186;0.276;2023-03-23T02:41:12;99490.53;;;15.55;68.12
64739;BME280;51175;51.186;0.276;2023-03-23T02:41:54;99494.78;;;15.56;68.19
64739;BME280;51175;51.186;0.276;2023-03-23T02:42:28;99490.53;;;15.55;68.45
64739;BME280;51175;51.186;0.276;2023-03-23T02:43:02;99499.31;;;15.55;68.40
64739;BME280;51175;51.186;0.276;2023-03-23T02:43:42;99496.66;;;15.55;68.26
64739;BME280;51175;51.186;0.276;2023-03-23T02:44:15;99494.00;;;15.55;68.18
64739;BME280;51175;51.186;0.276;2023-03-23T02:44:46;99497.44;;;15.56;68.06
64739;BME280;51175;51.186;0.276;2023-03-23T02:45:20;99496.66;;;15.55;68.30
64739;BME280;51175;51.186;0.276;2023-03-23T02:45:53;99489.47;;;15.56;68.29
64739;BME280;51175;51.186;0.276;2023-03-23T02:46:25;99492.88;;;15.56;68.04
64739;BME280;51175;51.186;0.276;2023-03-23T02:46:57;99487.56;;;15.56;68.41
64739;BME280;51175;51.186;0.276;2023-03-23T02:47:29;99494.78;;;15.56;68.33
64739;BME280;51175;51.186;0.276;2023-03-23T02:48:02;99497.13;;;15.57;68.21
64739;BME280;51175;51.186;0.276;2023-03-23T02:48:35;99488.34;;;15.57;68.13
64739;BME280;51175;51.186;0.276;2023-03-23T02:49:08;99494.47;;;15.57;68.32
64739;BME280;51175;51.186;0.276;2023-03-23T02:49:40;99493.69;;;15.57;68.37
64739;BME280;51175;51.186;0.276;2023-03-23T02:50:14;99491.81;;;15.57;68.05
64739;BME280;51175;51.186;0.276;2023-03-23T02:50:47;99493.34;;;15.58;68.28
64739;BME280;51175;51.186;0.276;2023-03-23T02:51:20;99488.03;;;15.58;68.13
64739;BME280;51175;51.186;0.276;2023-03-23T02:51:53;99485.38;;;15.58;68.11
64739;BME280;51175;51.186;0.276;2023-03-23T02:52:29;99483.50;;;15.59;68.23
64739;BME280;51175;51.186;0.276;2023-03-23T02:53:01;99490.69;;;15.58;68.20
64739;BME280;51175;51.186;0.276;2023-03-23T02:53:36;99492.56;;;15.58;68.08
64739;BME280;51175;51.186;0.276;2023-03-23T02:54:09;99489.16;;;15.57;67.92
64739;BME280;51175;51.186;0.276;2023-03-23T02:54:42;99495.22;;;15.58;68.10
64739;BME280;51175;51.186;0.276;2023-03-23T02:55:14;99493.34;;;15.58;68.06
64739;BME280;51175;51.186;0.276;2023-03-23T02:55:46;99489.59;;;15.59;68.28
64739;BME280;51175;51.186;0.276;2023-03-23T02:56:18;99491.50;;;15.59;68.24
64739;BME280;51175;51.186;0.276;2023-03-23T02:56:52;99499.47;;;15.59;68.06
64739;BME280;51175;51.186;0.276;2023-03-23T02:57:24;99490.69;;;15.58;67.91
64739;BME280;51175;51.186;0.276;2023-03-23T02:57:56;99488.81;;;15.59;67.87
64739;BME280;51175;51.186;0.276;2023-03-23T02:58:27;99499.47;;;15.59;67.87
64739;BME280;51175;51.186;0.276;2023-03-23T02:58:57;99494.16;;;15.59;68.23
64739;BME280;51175;51.186;0.276;2023-03-23T02:59:27;99498.38;;;15.60;67.73
64739;BME280;51175;51.186;0.276;2023-03-23T02:59:58;99496.50;;;15.60;67.78
64739;BME280;51175;51.186;0.276;2023-03-23T03:00:28;99501.81;;;15.60;68.02
64739;BME280;51175;51.186;0.276;2023-03-23T03:00:59;99503.69;;;15.60;68.09
64739;BME280;51175;51.186;0.276;2023-03-23T03:02:32;99496.81;;;15.59;67.86
64739;BME280;51175;51.186;0.276;2023-03-23T03:03:13;99490.69;;;15.58;67.67
64739;BME280;51175;51.186;0.276;2023-03-23T03:03:45;99500.56;;;15.58;68.04
64739;BME280;51175;51.186;0.276;2023-03-23T03:04:18;99497.88;;;15.58;67.93
64739;BME280;51175;51.186;0.276;2023-03-23T03:05:07;99495.53;;;15.56;67.94
64739;BME280;51175;51.186;0.276;2023-03-23T03:05:44;99496.34;;;15.57;67.74
64739;BME280;51175;51.186;0.276;2023-03-23T03:08:45;99497.44;;;15.56;68.16
64739;BME280;51175;51.186;0.276;2023-03-23T03:11:00;99497.44;;;15.56;68.00
64739;BME280;51175;51.186;0.276;2023-03-23T03:11:34;99504.97;;;15.54;67.94
64739;BME280;51175;51.186;0.276;2023-03-23T03:12:15;99505.75;;;15.54;67.98
64739;BME280;51175;51.186;0.276;2023-03-23T03:13:59;99504.16;;;15.53;67.87
64739;BME280;51175;51.186;0.276;2023-03-23T03:15:31;99498.09;;;15.52;67.92
64739;BME280;51175;51.186;0.276;2023-03-23T03:16:13;99507.13;;;15.51;68.04
64739;BME280;51175;51.186;0.276;2023-03-23T03:17:00;99507.13;;;15.51;68.22
64739;BME280;51175;51.186;0.276;2023-03-23T03:17:31;99511.69;;;15.51;68.07